sensor_id;sensor_type;location;lat;lon;timestamp;pressure;altitude;pressure_sealevel;temperature;humidity
56040;BME280;43937;41.366;2.072;2024-03-07T00:02:20;101209.25;;;11.44;71.25
56040;BME280;43937;41.366;2.072;2024-03-07T00:04:45;101200.75;;;11.48;71.49
56040;BME280;43937;41.366;2.072;2024-03-07T00:07:11;101195.44;;;11.46;71.62
56040;BME280;43937;41.366;2.072;2024-03-07T00:09:36;101183.63;;;11.37;71.24
56040;BME280;43937;41.366;2.072;2024-03-07T00:12:03;101164.31;;;11.22;72.26
56040;BME280;43937;41.366;2.072;2024-03-07T00:14:29;101199.91;;;11.47;72.16
56040;BME280;43937;41.366;2.072;2024-03-07T00:16:55;101193.75;;;11.45;72.44
56040;BME280;43937;41.366;2.072;2024-03-07T00:19:21;101196.16;;;11.48;72.35
56040;BME280;43937;41.366;2.072;2024-03-07T00:21:50;101191.34;;;11.42;72.69
56040;BME280;43937;41.366;2.072;2024-03-07T00:24:15;101181.78;;;11.38;73.50
56040;BME280;43937;41.366;2.072;2024-03-07T00:26:41;101186.88;;;11.67;72.92
56040;BME280;43937;41.366;2.072;2024-03-07T00:29:06;101169.00;;;11.73;72.69
56040;BME280;43937;41.366;2.072;2024-03-07T00:31:32;101176.38;;;11.80;72.44
56040;BME280;43937;41.366;2.072;2024-03-07T00:33:58;101173.31;;;11.83;73.42
56040;BME280;43937;41.366;2.072;2024-03-07T00:36:24;101163.41;;;11.74;72.95
56040;BME280;43937;41.366;2.072;2024-03-07T00:38:50;101150.19;;;11.61;73.19
56040;BME280;43937;41.366;2.072;2024-03-07T00:41:15;101172.25;;;11.76;73.68
56040;BME280;43937;41.366;2.072;2024-03-07T00:43:42;101152.78;;;11.63;73.62
56040;BME280;43937;41.366;2.072;2024-03-07T00:46:08;101140.97;;;11.54;73.76
56040;BME280;43937;41.366;2.072;2024-03-07T00:48:33;101144.97;;;11.68;74.19
56040;BME280;43937;41.366;2.072;2024-03-07T00:50:59;101129.94;;;11.64;73.93
56040;BME280;43937;41.366;2.072;2024-03-07T00:53:24;101131.38;;;11.84;73.63
56040;BME280;43937;41.366;2.072;2024-03-07T00:55:50;101145.47;;;12.06;73.03
56040;BME280;43937;41.366;2.072;2024-03-07T00:58:16;101134.66;;;11.88;73.50
56040;BME280;43937;41.366;2.072;2024-03-07T01:00:41;101149.91;;;11.73;74.33
56040;BME280;43937;41.366;2.072;2024-03-07T01:03:10;101134.16;;;11.50;75.22
56040;BME280;43937;41.366;2.072;2024-03-07T01:05:37;101124.88;;;11.35;75.22
56040;BME280;43937;41.366;2.072;2024-03-07T01:08:04;101132.88;;;11.36;75.47
56040;BME280;43937;41.366;2.072;2024-03-07T01:10:30;101154.69;;;11.36;75.39
56040;BME280;43937;41.366;2.072;2024-03-07T01:12:56;101134.81;;;11.18;75.27
56040;BME280;43937;41.366;2.072;2024-03-07T01:15:25;101139.56;;;11.16;74.26
56040;BME280;43937;41.366;2.072;2024-03-07T01:17:51;101133.19;;;11.07;72.31
56040;BME280;43937;41.366;2.072;2024-03-07T01:20:16;101130.72;;;10.70;72.58
56040;BME280;43937;41.366;2.072;2024-03-07T01:22:42;101147.47;;;10.57;72.63
56040;BME280;43937;41.366;2.072;2024-03-07T01:25:07;101134.94;;;10.46;72.85
56040;BME280;43937;41.366;2.072;2024-03-07T01:27:33;101127.34;;;10.32;73.29
56040;BME280;43937;41.366;2.072;2024-03-07T01:29:59;101120.00;;;10.15;73.43
56040;BME280;43937;41.366;2.072;2024-03-07T01:32:24;101130.56;;;10.18;73.42
56040;BME280;43937;41.366;2.072;2024-03-07T01:34:50;101129.09;;;10.23;73.83
56040;BME280;43937;41.366;2.072;2024-03-07T01:37:15;101086.31;;;9.80;74.41
56040;BME280;43937;41.366;2.072;2024-03-07T01:39:40;101109.19;;;10.05;74.17
56040;BME280;43937;41.366;2.072;2024-03-07T01:42:06;101123.75;;;10.14;73.68
56040;BME280;43937;41.366;2.072;2024-03-07T01:44:33;101046.09;;;9.83;73.13
56040;BME280;43937;41.366;2.072;2024-03-07T01:46:59;101101.41;;;10.10;73.59
56040;BME280;43937;41.366;2.072;2024-03-07T01:49:31;101104.31;;;10.08;73.78
56040;BME280;43937;41.366;2.072;2024-03-07T01:51:57;101101.81;;;10.15;74.30
56040;BME280;43937;41.366;2.072;2024-03-07T01:54:25;101095.44;;;10.06;75.45
56040;BME280;43937;41.366;2.072;2024-03-07T01:56:51;101090.78;;;10.17;75.30
56040;BME280;43937;41.366;2.072;2024-03-07T01:59:18;101075.63;;;10.14;76.05
56040;BME280;43937;41.366;2.072;2024-03-07T02:01:46;101056.81;;;10.21;75.79
56040;BME280;43937;41.366;2.072;2024-03-07T02:04:12;101085.28;;;10.26;76.65
56040;BME280;43937;41.366;2.072;2024-03-07T02:06:39;101078.84;;;10.27;76.29
56040;BME280;43937;41.366;2.072;2024-03-07T02:09:06;101057.53;;;10.23;76.19
56040;BME280;43937;41.366;2.072;2024-03-07T02:11:32;101063.75;;;10.33;75.69
56040;BME280;43937;41.366;2.072;2024-03-07T02:13:57;101056.97;;;10.37;75.46
56040;BME280;43937;41.366;2.072;2024-03-07T02:16:23;101070.50;;;10.47;74.73
56040;BME280;43937;41.366;2.072;2024-03-07T02:18:49;101058.75;;;10.28;75.82
56040;BME280;43937;41.366;2.072;2024-03-07T02:21:15;101039.16;;;10.25;76.49
56040;BME280;43937;41.366;2.072;2024-03-07T02:23:41;101040.81;;;10.36;76.57
56040;BME280;43937;41.366;2.072;2024-03-07T02:26:07;101052.03;;;10.59;76.84
56040;BME280;43937;41.366;2.072;2024-03-07T02:28:36;101024.59;;;10.52;76.36
56040;BME280;43937;41.366;2.072;2024-03-07T02:31:02;101021.28;;;10.40;76.81
56040;BME280;43937;41.366;2.072;2024-03-07T02:33:27;101017.75;;;10.74;76.42
56040;BME280;43937;41.366;2.072;2024-03-07T02:35:53;101020.66;;;10.98;75.37
56040;BME280;43937;41.366;2.072;2024-03-07T02:38:18;101011.25;;;10.93;75.98
56040;BME280;43937;41.366;2.072;2024-03-07T02:40:44;100996.88;;;10.74;76.23
56040;BME280;43937;41.366;2.072;2024-03-07T02:43:11;100976.38;;;10.62;76.46
56040;BME280;43937;41.366;2.072;2024-03-07T02:45:37;100994.72;;;10.94;76.14
56040;BME280;43937;41.366;2.072;2024-03-07T02:48:03;101005.78;;;11.27;75.86
56040;BME280;43937;41.366;2.072;2024-03-07T02:50:29;100970.63;;;11.08;75.87
56040;BME280;43937;41.366;2.072;2024-03-07T02:52:55;100989.34;;;11.03;78.01
56040;BME280;43937;41.366;2.072;2024-03-07T02:55:20;100978.47;;;11.19;76.09
56040;BME280;43937;41.366;2.072;2024-03-07T02:57:46;100978.44;;;11.03;76.67
56040;BME280;43937;41.366;2.072;2024-03-07T03:00:12;100969.06;;;10.71;78.31
56040;BME280;43937;41.366;2.072;2024-03-07T03:02:52;100974.69;;;11.04;77.78
56040;BME280;43937;41.366;2.072;2024-03-07T03:05:18;100959.47;;;10.59;78.47
56040;BME280;43937;41.366;2.072;2024-03-07T03:07:44;100933.53;;;10.38;79.79
56040;BME280;43937;41.366;2.072;2024-03-07T03:10:16;100962.38;;;10.57;79.67
56040;BME280;43937;41.366;2.072;2024-03-07T03:12:42;100948.28;;;10.62;79.19
56040;BME280;43937;41.366;2.072;2024-03-07T03:15:09;100939.44;;;10.60;79.44
56040;BME280;43937;41.366;2.072;2024-03-07T03:17:37;100950.28;;;10.51;78.40
56040;BME280;43937;41.366;2.072;2024-03-07T03:20:02;100931.66;;;10.39;78.20
56040;BME280;43937;41.366;2.072;2024-03-07T03:22:40;100944.41;;;10.38;78.26
56040;BME280;43937;41.366;2.072;2024-03-07T03:25:05;100939.66;;;10.40;78.59
56040;BME280;43937;41.366;2.072;2024-03-07T03:27:32;100941.84;;;10.63;77.00
56040;BME280;43937;41.366;2.072;2024-03-07T03:29:57;100949.56;;;10.49;76.63
56040;BME280;43937;41.366;2.072;2024-03-07T03:32:25;100919.16;;;10.28;76.18
56040;BME280;43937;41.366;2.072;2024-03-07T03:34:51;100939.75;;;10.30;76.56
56040;BME280;43937;41.366;2.072;2024-03-07T03:37:17;100943.50;;;10.29;76.48
56040;BME280;43937;41.366;2.072;2024-03-07T03:39:43;100931.78;;;10.29;76.40
56040;BME280;43937;41.366;2.072;2024-03-07T03:42:08;100928.13;;;10.20;76.68
56040;BME280;43937;41.366;2.072;2024-03-07T03:44:34;100921.06;;;10.09;76.70
56040;BME280;43937;41.366;2.072;2024-03-07T03:46:59;100920.91;;;10.11;76.12
56040;BME280;43937;41.366;2.072;2024-03-07T03:49:29;100924.59;;;10.28;76.01
56040;BME280;43937;41.366;2.072;2024-03-07T03:51:54;100914.50;;;10.20;75.67
56040;BME280;43937;41.366;2.072;2024-03-07T03:54:20;100913.38;;;10.05;76.70
56040;BME280;43937;41.366;2.072;2024-03-07T03:56:45;100889.75;;;10.05;75.86
56040;BME280;43937;41.366;2.072;2024-03-07T03:59:11;100905.50;;;10.20;76.21
56040;BME280;43937;41.366;2.072;2024-03-07T04:01:37;100907.63;;;10.34;76.09
56040;BME280;43937;41.366;2.072;2024-03-07T04:04:02;100908.50;;;10.35;75.17
56040;BME280;43937;41.366;2.072;2024-03-07T04:06:28;100908.47;;;10.26;75.28
56040;BME280;43937;41.366;2.072;2024-03-07T04:08:53;100923.28;;;10.32;75.48
56040;BME280;43937;41.366;2.072;2024-03-07T04:11:21;100918.41;;;10.18;76.04
56040;BME280;43937;41.366;2.072;2024-03-07T04:13:46;100904.09;;;10.16;75.88
56040;BME280;43937;41.366;2.072;2024-03-07T04:16:12;100926.06;;;10.22;76.14
56040;BME280;43937;41.366;2.072;2024-03-07T04:18:39;100904.09;;;10.16;75.72
56040;BME280;43937;41.366;2.072;2024-03-07T04:21:04;100909.84;;;10.30;75.72
56040;BME280;43937;41.366;2.072;2024-03-07T04:23:30;100910.41;;;10.42;76.15
56040;BME280;43937;41.366;2.072;2024-03-07T04:25:55;100911.47;;;10.49;77.09
56040;BME280;43937;41.366;2.072;2024-03-07T04:28:21;100912.34;;;10.50;76.38
56040;BME280;43937;41.366;2.072;2024-03-07T04:30:47;100899.72;;;10.49;76.54
56040;BME280;43937;41.366;2.072;2024-03-07T04:33:14;100900.25;;;10.52;76.59
56040;BME280;43937;41.366;2.072;2024-03-07T04:35:40;100896.88;;;10.50;76.72
56040;BME280;43937;41.366;2.072;2024-03-07T04:38:05;100906.03;;;10.49;76.59
56040;BME280;43937;41.366;2.072;2024-03-07T04:40:36;100891.31;;;10.34;76.75
56040;BME280;43937;41.366;2.072;2024-03-07T04:43:02;100888.31;;;10.19;77.38
56040;BME280;43937;41.366;2.072;2024-03-07T04:45:28;100909.31;;;10.27;77.26
56040;BME280;43937;41.366;2.072;2024-03-07T04:47:53;100893.50;;;10.30;77.88
56040;BME280;43937;41.366;2.072;2024-03-07T04:50:19;100886.19;;;10.31;77.10
56040;BME280;43937;41.366;2.072;2024-03-07T04:52:44;100878.06;;;10.13;77.31
56040;BME280;43937;41.366;2.072;2024-03-07T04:55:11;100870.06;;;10.12;77.58
56040;BME280;43937;41.366;2.072;2024-03-07T04:57:38;100886.31;;;10.47;77.16
56040;BME280;43937;41.366;2.072;2024-03-07T05:00:09;100882.63;;;10.65;76.95
56040;BME280;43937;41.366;2.072;2024-03-07T05:02:46;100861.47;;;10.50;77.44
56040;BME280;43937;41.366;2.072;2024-03-07T05:05:12;100879.69;;;10.58;77.34
56040;BME280;43937;41.366;2.072;2024-03-07T05:07:38;100870.50;;;10.51;77.24
56040;BME280;43937;41.366;2.072;2024-03-07T05:10:04;100827.41;;;10.12;78.36
56040;BME280;43937;41.366;2.072;2024-03-07T05:12:31;100851.34;;;10.26;78.00
56040;BME280;43937;41.366;2.072;2024-03-07T05:14:56;100830.84;;;10.14;77.93
56040;BME280;43937;41.366;2.072;2024-03-07T05:17:22;100825.91;;;10.18;77.39
56040;BME280;43937;41.366;2.072;2024-03-07T05:19:48;100869.75;;;10.41;77.12
56040;BME280;43937;41.366;2.072;2024-03-07T05:22:15;100857.28;;;10.30;76.53
56040;BME280;43937;41.366;2.072;2024-03-07T05:24:44;100844.53;;;10.30;75.58
56040;BME280;43937;41.366;2.072;2024-03-07T05:27:10;100866.34;;;10.39;75.30
56040;BME280;43937;41.366;2.072;2024-03-07T05:29:39;100800.03;;;9.79;76.30
56040;BME280;43937;41.366;2.072;2024-03-07T05:32:22;100870.47;;;10.25;75.66
56040;BME280;43937;41.366;2.072;2024-03-07T05:34:48;100845.53;;;10.03;76.49
56040;BME280;43937;41.366;2.072;2024-03-07T05:37:13;100849.56;;;10.17;75.76
56040;BME280;43937;41.366;2.072;2024-03-07T05:39:39;100863.06;;;10.27;75.56
56040;BME280;43937;41.366;2.072;2024-03-07T05:42:04;100842.28;;;10.26;75.94
56040;BME280;43937;41.366;2.072;2024-03-07T05:44:32;100836.63;;;10.45;75.12
56040;BME280;43937;41.366;2.072;2024-03-07T05:46:58;100842.44;;;10.59;74.88
56040;BME280;43937;41.366;2.072;2024-03-07T05:49:25;100844.78;;;10.45;75.57
56040;BME280;43937;41.366;2.072;2024-03-07T05:51:50;100859.09;;;10.47;76.78
56040;BME280;43937;41.366;2.072;2024-03-07T05:54:15;100841.50;;;10.34;76.32
56040;BME280;43937;41.366;2.072;2024-03-07T05:56:41;100850.97;;;10.64;75.56
56040;BME280;43937;41.366;2.072;2024-03-07T05:59:10;100851.97;;;10.54;75.57
56040;BME280;43937;41.366;2.072;2024-03-07T06:01:36;100876.50;;;10.63;74.73
56040;BME280;43937;41.366;2.072;2024-03-07T06:04:02;100858.63;;;10.60;74.56
56040;BME280;43937;41.366;2.072;2024-03-07T06:06:28;100873.16;;;10.85;73.30
56040;BME280;43937;41.366;2.072;2024-03-07T06:08:57;100861.56;;;10.75;74.01
56040;BME280;43937;41.366;2.072;2024-03-07T06:11:23;100838.19;;;10.56;73.56
56040;BME280;43937;41.366;2.072;2024-03-07T06:13:48;100857.34;;;10.46;74.06
56040;BME280;43937;41.366;2.072;2024-03-07T06:16:14;100868.69;;;10.68;73.61
56040;BME280;43937;41.366;2.072;2024-03-07T06:18:42;100880.22;;;10.62;74.45
56040;BME280;43937;41.366;2.072;2024-03-07T06:21:08;100879.50;;;10.51;74.52
56040;BME280;43937;41.366;2.072;2024-03-07T06:23:34;100882.16;;;10.35;74.72
56040;BME280;43937;41.366;2.072;2024-03-07T06:26:00;100891.75;;;10.47;74.74
56040;BME280;43937;41.366;2.072;2024-03-07T06:28:26;100886.38;;;10.64;73.33
56040;BME280;43937;41.366;2.072;2024-03-07T06:30:54;100894.25;;;10.75;72.73
56040;BME280;43937;41.366;2.072;2024-03-07T06:33:20;100881.31;;;10.77;71.22
56040;BME280;43937;41.366;2.072;2024-03-07T06:35:46;100887.47;;;10.87;71.70
56040;BME280;43937;41.366;2.072;2024-03-07T06:38:12;100884.94;;;10.94;70.76
56040;BME280;43937;41.366;2.072;2024-03-07T06:40:38;100886.50;;;10.96;69.53
56040;BME280;43937;41.366;2.072;2024-03-07T06:43:10;100900.47;;;11.02;69.22
56040;BME280;43937;41.366;2.072;2024-03-07T06:45:45;100886.81;;;10.93;69.03
56040;BME280;43937;41.366;2.072;2024-03-07T06:48:11;100905.03;;;10.93;69.34
56040;BME280;43937;41.366;2.072;2024-03-07T06:50:40;100892.31;;;11.02;69.03
56040;BME280;43937;41.366;2.072;2024-03-07T06:53:07;100887.53;;;11.04;69.51
56040;BME280;43937;41.366;2.072;2024-03-07T06:55:32;100908.19;;;11.22;68.77
56040;BME280;43937;41.366;2.072;2024-03-07T06:58:01;100896.75;;;11.11;69.65
56040;BME280;43937;41.366;2.072;2024-03-07T07:00:30;100912.25;;;11.18;69.13
56040;BME280;43937;41.366;2.072;2024-03-07T07:02:57;100920.81;;;11.40;68.68
56040;BME280;43937;41.366;2.072;2024-03-07T07:05:22;100918.63;;;11.52;67.30
56040;BME280;43937;41.366;2.072;2024-03-07T07:07:48;100914.84;;;11.53;66.92
56040;BME280;43937;41.366;2.072;2024-03-07T07:10:14;100885.84;;;11.19;66.35
56040;BME280;43937;41.366;2.072;2024-03-07T07:12:49;100922.88;;;11.38;66.46
56040;BME280;43937;41.366;2.072;2024-03-07T07:15:16;100900.25;;;11.62;66.19
56040;BME280;43937;41.366;2.072;2024-03-07T07:17:44;100923.09;;;11.94;65.13
56040;BME280;43937;41.366;2.072;2024-03-07T07:20:14;100916.97;;;12.00;65.04
56040;BME280;43937;41.366;2.072;2024-03-07T07:22:41;100902.97;;;12.11;65.08
56040;BME280;43937;41.366;2.072;2024-03-07T07:25:07;100917.53;;;12.59;63.43
56040;BME280;43937;41.366;2.072;2024-03-07T07:27:46;100922.47;;;13.03;61.85
56040;BME280;43937;41.366;2.072;2024-03-07T07:30:13;100910.63;;;13.50;60.40
56040;BME280;43937;41.366;2.072;2024-03-07T07:32:40;100902.34;;;14.34;58.40
56040;BME280;43937;41.366;2.072;2024-03-07T07:35:06;100921.44;;;16.80;50.76
56040;BME280;43937;41.366;2.072;2024-03-07T07:37:39;100914.06;;;17.42;47.51
56040;BME280;43937;41.366;2.072;2024-03-07T07:40:09;100926.19;;;15.65;51.65
56040;BME280;43937;41.366;2.072;2024-03-07T07:42:38;100904.88;;;14.58;53.61
56040;BME280;43937;41.366;2.072;2024-03-07T07:45:06;100925.59;;;14.38;54.07
56040;BME280;43937;41.366;2.072;2024-03-07T07:47:32;100906.47;;;13.77;55.74
56040;BME280;43937;41.366;2.072;2024-03-07T07:49:58;100915.44;;;14.09;55.36
56040;BME280;43937;41.366;2.072;2024-03-07T07:52:23;100932.56;;;14.26;54.98
56040;BME280;43937;41.366;2.072;2024-03-07T07:54:50;100874.25;;;15.42;50.37
56040;BME280;43937;41.366;2.072;2024-03-07T07:57:15;100904.63;;;15.04;51.82
56040;BME280;43937;41.366;2.072;2024-03-07T07:59:41;100924.38;;;14.55;53.79
56040;BME280;43937;41.366;2.072;2024-03-07T08:02:06;100927.25;;;14.24;54.14
56040;BME280;43937;41.366;2.072;2024-03-07T08:04:32;100924.06;;;13.97;54.78
56040;BME280;43937;41.366;2.072;2024-03-07T08:06:58;100929.19;;;14.01;54.49
56040;BME280;43937;41.366;2.072;2024-03-07T08:09:23;100938.03;;;14.26;54.49
56040;BME280;43937;41.366;2.072;2024-03-07T08:11:48;100928.72;;;14.50;54.36
56040;BME280;43937;41.366;2.072;2024-03-07T08:14:15;100936.94;;;14.79;52.94
56040;BME280;43937;41.366;2.072;2024-03-07T08:16:41;100915.84;;;14.35;53.95
56040;BME280;43937;41.366;2.072;2024-03-07T08:19:06;100930.50;;;14.42;54.05
56040;BME280;43937;41.366;2.072;2024-03-07T08:21:34;100935.44;;;14.09;55.15
56040;BME280;43937;41.366;2.072;2024-03-07T08:24:01;100931.22;;;14.89;53.20
56040;BME280;43937;41.366;2.072;2024-03-07T08:26:29;100926.13;;;15.58;51.24
56040;BME280;43937;41.366;2.072;2024-03-07T08:28:54;100915.31;;;14.99;52.42
56040;BME280;43937;41.366;2.072;2024-03-07T08:31:19;100929.00;;;15.14;52.06
56040;BME280;43937;41.366;2.072;2024-03-07T08:33:45;100933.09;;;15.25;51.71
56040;BME280;43937;41.366;2.072;2024-03-07T08:36:11;100923.16;;;14.58;53.01
56040;BME280;43937;41.366;2.072;2024-03-07T08:38:36;100922.69;;;14.69;53.27
56040;BME280;43937;41.366;2.072;2024-03-07T08:41:04;100920.31;;;16.74;48.85
56040;BME280;43937;41.366;2.072;2024-03-07T08:43:29;100904.84;;;19.20;42.74
56040;BME280;43937;41.366;2.072;2024-03-07T08:45:55;100901.38;;;18.87;42.66
56040;BME280;43937;41.366;2.072;2024-03-07T08:48:20;100905.91;;;21.01;38.69
56040;BME280;43937;41.366;2.072;2024-03-07T08:50:47;100916.88;;;20.03;40.53
56040;BME280;43937;41.366;2.072;2024-03-07T08:53:13;100914.59;;;19.61;41.48
56040;BME280;43937;41.366;2.072;2024-03-07T08:55:38;100903.75;;;18.76;42.70
56040;BME280;43937;41.366;2.072;2024-03-07T08:58:04;100904.84;;;18.36;43.55
56040;BME280;43937;41.366;2.072;2024-03-07T09:00:31;100912.66;;;17.59;45.31
56040;BME280;43937;41.366;2.072;2024-03-07T09:02:58;100895.78;;;17.07;46.76
56040;BME280;43937;41.366;2.072;2024-03-07T09:05:25;100872.03;;;18.14;44.42
56040;BME280;43937;41.366;2.072;2024-03-07T09:07:52;100909.53;;;18.02;45.05
56040;BME280;43937;41.366;2.072;2024-03-07T09:10:17;100890.84;;;17.71;45.99
56040;BME280;43937;41.366;2.072;2024-03-07T09:12:44;100892.59;;;18.25;45.08
56040;BME280;43937;41.366;2.072;2024-03-07T09:15:10;100877.19;;;18.89;44.05
56040;BME280;43937;41.366;2.072;2024-03-07T09:17:37;100874.13;;;19.10;42.66
56040;BME280;43937;41.366;2.072;2024-03-07T09:20:06;100873.88;;;19.12;43.62
56040;BME280;43937;41.366;2.072;2024-03-07T09:22:34;100872.16;;;18.79;43.85
56040;BME280;43937;41.366;2.072;2024-03-07T09:24:59;100878.88;;;18.90;44.61
56040;BME280;43937;41.366;2.072;2024-03-07T09:27:25;100875.97;;;18.65;44.79
56040;BME280;43937;41.366;2.072;2024-03-07T09:29:51;100850.78;;;19.06;43.20
56040;BME280;43937;41.366;2.072;2024-03-07T09:32:17;100863.84;;;18.72;44.46
56040;BME280;43937;41.366;2.072;2024-03-07T09:34:42;100863.38;;;18.95;44.55
56040;BME280;43937;41.366;2.072;2024-03-07T09:37:08;100864.38;;;19.46;45.63
56040;BME280;43937;41.366;2.072;2024-03-07T09:39:34;100869.44;;;19.81;45.65
56040;BME280;43937;41.366;2.072;2024-03-07T09:42:03;100874.25;;;20.17;45.14
56040;BME280;43937;41.366;2.072;2024-03-07T09:44:31;100868.19;;;20.52;44.34
56040;BME280;43937;41.366;2.072;2024-03-07T09:47:00;100855.44;;;21.18;44.38
56040;BME280;43937;41.366;2.072;2024-03-07T09:49:28;100851.22;;;21.64;43.35
56040;BME280;43937;41.366;2.072;2024-03-07T09:51:55;100864.19;;;22.29;42.22
56040;BME280;43937;41.366;2.072;2024-03-07T09:54:22;100850.28;;;22.05;43.31
56040;BME280;43937;41.366;2.072;2024-03-07T09:56:58;100855.47;;;22.13;43.15
56040;BME280;43937;41.366;2.072;2024-03-07T09:59:25;100847.50;;;21.93;43.40
56040;BME280;43937;41.366;2.072;2024-03-07T10:01:56;100831.34;;;20.51;46.28
56040;BME280;43937;41.366;2.072;2024-03-07T10:04:30;100857.78;;;21.33;45.77
56040;BME280;43937;41.366;2.072;2024-03-07T10:06:57;100846.19;;;21.12;45.70
56040;BME280;43937;41.366;2.072;2024-03-07T10:09:23;100842.81;;;20.92;46.00
56040;BME280;43937;41.366;2.072;2024-03-07T10:12:00;100842.84;;;20.73;47.32
56040;BME280;43937;41.366;2.072;2024-03-07T10:14:34;100827.53;;;20.89;46.67
56040;BME280;43937;41.366;2.072;2024-03-07T10:17:00;100819.19;;;21.08;45.91
56040;BME280;43937;41.366;2.072;2024-03-07T10:19:25;100844.97;;;21.38;45.93
56040;BME280;43937;41.366;2.072;2024-03-07T10:21:53;100829.38;;;21.56;45.34
56040;BME280;43937;41.366;2.072;2024-03-07T10:24:26;100833.22;;;20.94;47.10
56040;BME280;43937;41.366;2.072;2024-03-07T10:26:52;100819.69;;;20.86;47.61
56040;BME280;43937;41.366;2.072;2024-03-07T10:29:22;100828.44;;;21.01;47.19
56040;BME280;43937;41.366;2.072;2024-03-07T10:31:48;100817.28;;;22.04;44.98
56040;BME280;43937;41.366;2.072;2024-03-07T10:34:16;100792.53;;;21.25;46.41
56040;BME280;43937;41.366;2.072;2024-03-07T10:36:43;100809.78;;;21.92;45.89
56040;BME280;43937;41.366;2.072;2024-03-07T10:39:09;100814.63;;;21.85;45.15
56040;BME280;43937;41.366;2.072;2024-03-07T10:41:46;100817.56;;;21.60;45.67
56040;BME280;43937;41.366;2.072;2024-03-07T10:44:20;100807.91;;;21.21;46.51
56040;BME280;43937;41.366;2.072;2024-03-07T10:46:55;100781.31;;;19.79;50.88
56040;BME280;43937;41.366;2.072;2024-03-07T10:49:25;100783.91;;;19.42;52.07
56040;BME280;43937;41.366;2.072;2024-03-07T10:52:07;100792.97;;;20.25;50.56
56040;BME280;43937;41.366;2.072;2024-03-07T10:54:43;100787.94;;;20.15;51.65
56040;BME280;43937;41.366;2.072;2024-03-07T10:59:57;100782.50;;;20.45;51.62
56040;BME280;43937;41.366;2.072;2024-03-07T11:02:46;100798.03;;;21.13;49.16
56040;BME280;43937;41.366;2.072;2024-03-07T11:05:12;100775.06;;;21.55;48.13
56040;BME280;43937;41.366;2.072;2024-03-07T11:07:38;100785.34;;;21.89;47.15
56040;BME280;43937;41.366;2.072;2024-03-07T11:10:05;100783.56;;;22.30;46.41
56040;BME280;43937;41.366;2.072;2024-03-07T11:12:40;100784.41;;;22.19;46.29
56040;BME280;43937;41.366;2.072;2024-03-07T11:15:08;100784.59;;;21.70;46.49
56040;BME280;43937;41.366;2.072;2024-03-07T11:17:44;100781.47;;;21.67;47.23
56040;BME280;43937;41.366;2.072;2024-03-07T11:20:24;100778.22;;;21.93;46.83
56040;BME280;43937;41.366;2.072;2024-03-07T11:22:50;100776.59;;;21.39;47.74
56040;BME280;43937;41.366;2.072;2024-03-07T11:25:22;100753.72;;;22.78;45.29
56040;BME280;43937;41.366;2.072;2024-03-07T11:28:05;100755.94;;;23.04;44.08
56040;BME280;43937;41.366;2.072;2024-03-07T11:30:31;100746.88;;;22.28;45.05
56040;BME280;43937;41.366;2.072;2024-03-07T11:32:56;100754.56;;;22.50;46.59
56040;BME280;43937;41.366;2.072;2024-03-07T11:35:33;100750.59;;;22.46;44.83
56040;BME280;43937;41.366;2.072;2024-03-07T11:38:02;100697.00;;;21.93;45.07
56040;BME280;43937;41.366;2.072;2024-03-07T11:42:57;100705.44;;;21.63;46.73
56040;BME280;43937;41.366;2.072;2024-03-07T11:45:30;100731.47;;;21.62;46.89
56040;BME280;43937;41.366;2.072;2024-03-07T11:48:04;100716.38;;;22.28;45.88
56040;BME280;43937;41.366;2.072;2024-03-07T11:50:34;100717.63;;;22.61;44.74
56040;BME280;43937;41.366;2.072;2024-03-07T11:53:03;100693.53;;;21.98;45.10
56040;BME280;43937;41.366;2.072;2024-03-07T11:55:36;100706.47;;;21.26;46.97
56040;BME280;43937;41.366;2.072;2024-03-07T11:58:14;100695.81;;;21.77;45.95
56040;BME280;43937;41.366;2.072;2024-03-07T12:00:45;100690.72;;;22.09;45.88
56040;BME280;43937;41.366;2.072;2024-03-07T12:03:15;100688.94;;;22.03;45.60
56040;BME280;43937;41.366;2.072;2024-03-07T12:05:44;100671.38;;;21.62;46.69
56040;BME280;43937;41.366;2.072;2024-03-07T12:08:10;100659.31;;;21.92;45.77
56040;BME280;43937;41.366;2.072;2024-03-07T12:10:37;100669.44;;;22.38;44.01
56040;BME280;43937;41.366;2.072;2024-03-07T12:13:05;100682.88;;;21.24;46.81
56040;BME280;43937;41.366;2.072;2024-03-07T12:15:31;100674.75;;;20.87;47.54
56040;BME280;43937;41.366;2.072;2024-03-07T12:17:57;100680.53;;;20.55;48.41
56040;BME280;43937;41.366;2.072;2024-03-07T12:20:23;100656.84;;;20.59;48.05
56040;BME280;43937;41.366;2.072;2024-03-07T12:22:59;100659.38;;;20.12;49.38
56040;BME280;43937;41.366;2.072;2024-03-07T12:25:28;100634.44;;;20.49;48.86
56040;BME280;43937;41.366;2.072;2024-03-07T12:28:04;100659.44;;;20.73;48.11
56040;BME280;43937;41.366;2.072;2024-03-07T12:30:53;100661.97;;;20.26;48.69
56040;BME280;43937;41.366;2.072;2024-03-07T12:33:21;100633.16;;;21.05;47.18
56040;BME280;43937;41.366;2.072;2024-03-07T12:35:53;100634.72;;;21.95;45.80
56040;BME280;43937;41.366;2.072;2024-03-07T12:38:19;100624.72;;;21.94;44.54
56040;BME280;43937;41.366;2.072;2024-03-07T12:40:45;100638.13;;;21.62;45.10
56040;BME280;43937;41.366;2.072;2024-03-07T12:43:20;100634.09;;;20.99;46.68
56040;BME280;43937;41.366;2.072;2024-03-07T12:45:50;100629.44;;;21.35;46.71
56040;BME280;43937;41.366;2.072;2024-03-07T12:48:19;100584.28;;;20.88;46.47
56040;BME280;43937;41.366;2.072;2024-03-07T12:50:47;100628.22;;;20.05;48.75
56040;BME280;43937;41.366;2.072;2024-03-07T12:53:22;100614.28;;;20.00;48.04
56040;BME280;43937;41.366;2.072;2024-03-07T12:55:48;100571.50;;;20.33;47.11
56040;BME280;43937;41.366;2.072;2024-03-07T12:58:14;100610.69;;;20.60;46.83